Time;durP1;ratioP1;P1;durP2;ratioP2;P2;SDS_P1;SDS_P2;PMS_P1;PMS_P2;Temp;Humidity;BMP_temperature;BMP_pressure;BME280_temperature;BME280_humidity;BME280_pressure;Samples;Min_cycle;Max_cycle;Signal;HPM_P1;HPM_P2
2023/05/24 00:02:05;;;;;;;1999.90;999.90;;;;;;;18.90;41.77;102605.09;5057250;28;20095;-71
2023/05/24 00:04:31;;;;;;;1999.90;999.90;;;;;;;19.08;41.01;102600.38;5050491;28;20107;-72
2023/05/24 00:06:57;;;;;;;1999.90;999.90;;;;;;;18.80;41.91;102600.84;5051285;28;20052;-72
2023/05/24 00:09:22;;;;;;;1999.90;999.90;;;;;;;18.74;41.51;102599.16;5049670;28;20024;-71
2023/05/24 00:11:48;;;;;;;1999.90;999.90;;;;;;;18.35;42.92;102593.56;5066174;28;20029;-71
2023/05/24 00:14:13;;;;;;;1999.90;999.90;;;;;;;19.07;40.70;102602.19;5069123;28;20068;-72
2023/05/24 00:16:39;;;;;;;1999.90;999.90;;;;;;;18.72;41.44;102593.00;5070281;28;20031;-72
2023/05/24 00:19:04;;;;;;;1999.90;999.90;;;;;;;18.77;41.86;102591.16;5057513;28;20174;-71
2023/05/24 00:21:30;;;;;;;1999.90;999.90;;;;;;;19.02;41.25;102590.78;5070308;28;20124;-72
2023/05/24 00:23:56;;;;;;;1999.90;999.90;;;;;;;18.79;42.05;102589.38;5070161;28;20063;-71
2023/05/24 00:26:22;;;;;;;1999.90;999.90;;;;;;;18.73;41.40;102589.47;5069078;28;20055;-71
2023/05/24 00:28:47;;;;;;;1999.90;999.90;;;;;;;18.75;41.68;102587.69;5070179;28;20035;-71
2023/05/24 00:31:12;;;;;;;1999.90;999.90;;;;;;;18.53;42.16;102584.47;5050354;28;20033;-71
2023/05/24 00:33:38;;;;;;;1999.90;999.90;;;;;;;18.99;41.33;102585.53;5065547;28;20524;-72
2023/05/24 00:36:06;;;;;;;1999.90;999.90;;;;;;;19.14;41.69;102590.56;5049221;28;20059;-72
2023/05/24 00:38:32;;;;;;;1999.90;999.90;;;;;;;19.17;41.33;102594.06;5053845;28;20059;-71
2023/05/24 00:40:59;;;;;;;1999.90;999.90;;;;;;;18.97;41.13;102593.53;5062194;28;20451;-71
2023/05/24 00:43:25;;;;;;;1999.90;999.90;;;;;;;19.29;40.56;102583.25;5068819;28;20480;-71
2023/05/24 00:46:17;;;;;;;1999.90;999.90;;;;;;;19.01;41.78;102586.38;5068211;28;20097;-72
2023/05/24 00:48:44;;;;;;;1999.90;999.90;;;;;;;19.26;40.52;102575.31;5069956;28;20032;-71
2023/05/24 00:51:11;;;;;;;1999.90;999.90;;;;;;;19.08;40.63;102581.84;5068166;28;20032;-72
2023/05/24 00:53:37;;;;;;;1999.90;999.90;;;;;;;18.67;41.65;102583.38;5069246;28;20025;-71
2023/05/24 00:56:03;;;;;;;1999.90;999.90;;;;;;;18.89;41.68;102579.53;5059563;28;20282;-71
2023/05/24 00:58:29;;;;;;;1999.90;999.90;;;;;;;19.14;40.46;102590.56;5069427;28;20048;-71
2023/05/24 01:01:00;;;;;;;1999.90;999.90;;;;;;;18.70;41.39;102584.22;5056897;28;20527;-71
2023/05/24 01:03:29;;;;;;;1999.90;999.90;;;;;;;18.89;41.05;102586.59;5049169;28;20033;-71
2023/05/24 01:06:01;;;;;;;1999.90;999.90;;;;;;;18.40;41.84;102589.09;5049516;28;20035;-71
2023/05/24 01:08:41;;;;;;;1999.90;999.90;;;;;;;18.29;42.48;102580.44;5048255;28;20485;-71
2023/05/24 01:11:19;;;;;;;1999.90;999.90;;;;;;;18.50;42.01;102570.44;5048688;28;20155;-71
2023/05/24 01:14:16;;;;;;;1999.90;999.90;;;;;;;18.68;41.51;102570.13;5061955;28;20253;-71
2023/05/24 01:16:48;;;;;;;1999.90;999.90;;;;;;;18.22;42.35;102570.88;5068594;28;20036;-71
2023/05/24 01:19:33;;;;;;;1999.90;999.90;;;;;;;18.22;42.43;102570.88;5069040;28;20067;-72
2023/05/24 01:22:16;;;;;;;1999.90;999.90;;;;;;;18.44;42.91;102577.56;5068671;28;20067;-71
2023/05/24 01:25:08;;;;;;;1999.90;999.90;;;;;;;18.59;41.87;102584.41;5069232;28;20036;-71
2023/05/24 01:27:36;;;;;;;1999.90;999.90;;;;;;;18.63;41.88;102582.59;5068696;28;20028;-72
2023/05/24 01:30:03;;;;;;;1999.90;999.90;;;;;;;17.84;43.74;102585.44;5057058;28;20025;-72
2023/05/24 01:32:29;;;;;;;1999.90;999.90;;;;;;;18.15;42.89;102580.66;5048406;28;20051;-72
2023/05/24 01:34:55;;;;;;;1999.90;999.90;;;;;;;18.56;42.47;102580.91;5053786;28;20044;-72
2023/05/24 01:37:20;;;;;;;1999.90;999.90;;;;;;;18.12;42.95;102581.56;5068518;28;20111;-71
2023/05/24 01:39:46;;;;;;;1999.90;999.90;;;;;;;18.46;42.44;102581.09;5050593;28;20499;-71
2023/05/24 01:42:46;;;;;;;1999.90;999.90;;;;;;;18.56;42.56;102570.31;5053373;28;20081;-71
2023/05/24 01:45:24;;;;;;;1999.90;999.90;;;;;;;18.23;42.55;102577.88;5067322;28;20036;-71
2023/05/24 01:48:30;;;;;;;1999.90;999.90;;;;;;;18.10;44.08;102572.75;5067398;28;20530;-72
2023/05/24 01:51:02;;;;;;;1999.90;999.90;;;;;;;18.03;43.41;102576.41;5048552;28;20059;-72
2023/05/24 01:53:34;;;;;;;1999.90;999.90;;;;;;;18.02;44.01;102572.00;5065230;28;20024;-71
2023/05/24 01:56:02;;;;;;;1999.90;999.90;;;;;;;18.41;43.04;102574.97;5057464;28;20039;-71
2023/05/24 01:58:30;;;;;;;1999.90;999.90;;;;;;;17.90;43.93;102580.06;5069552;28;20053;-72
2023/05/24 02:00:56;;;;;;;1999.90;999.90;;;;;;;17.80;44.43;102576.66;5070522;28;20418;-72
2023/05/24 02:03:22;;;;;;;1999.90;999.90;;;;;;;18.24;43.39;102575.22;5055895;28;20029;-72
2023/05/24 02:05:47;;;;;;;1999.90;999.90;;;;;;;18.41;42.73;102569.69;5055251;28;20448;-72
2023/05/24 02:08:13;;;;;;;1999.90;999.90;;;;;;;17.92;43.23;102567.75;5059153;28;20036;-71
2023/05/24 02:10:39;;;;;;;1999.90;999.90;;;;;;;18.33;42.58;102568.91;5047773;28;20503;-71
2023/05/24 02:13:05;;;;;;;1999.90;999.90;;;;;;;18.16;43.15;102561.22;5049512;28;20150;-71
2023/05/24 02:15:31;;;;;;;1999.90;999.90;;;;;;;18.22;43.21;102562.91;5048607;28;20362;-72
2023/05/24 02:17:57;;;;;;;1999.90;999.90;;;;;;;17.92;43.46;102562.44;5061716;28;20306;-71
2023/05/24 02:20:23;;;;;;;1999.90;999.90;;;;;;;18.36;43.13;102558.28;5048033;28;20037;-70
2023/05/24 02:22:48;;;;;;;1999.90;999.90;;;;;;;18.21;43.45;102563.81;5051285;28;20032;-71
2023/05/24 02:25:14;;;;;;;1999.90;999.90;;;;;;;18.16;42.97;102561.22;5050613;28;20094;-71
2023/05/24 02:27:40;;;;;;;1999.90;999.90;;;;;;;18.24;42.80;102561.09;5048597;28;20033;-71
2023/05/24 02:30:07;;;;;;;1999.90;999.90;;;;;;;18.18;43.46;102558.56;5049475;28;20039;-71
2023/05/24 02:32:35;;;;;;;1999.90;999.90;;;;;;;18.27;42.97;102569.00;5048623;28;20044;-66
2023/05/24 02:35:01;;;;;;;1999.90;999.90;;;;;;;18.35;42.91;102561.81;5059407;28;20036;-66
2023/05/24 02:37:27;;;;;;;1999.90;999.90;;;;;;;18.61;42.33;102565.84;5050985;28;20094;-66
2023/05/24 02:39:52;;;;;;;1999.90;999.90;;;;;;;18.41;42.40;102556.44;5067165;28;20482;-66
2023/05/24 02:42:18;;;;;;;1999.90;999.90;;;;;;;18.18;42.70;102564.72;5067165;28;20503;-66
2023/05/24 02:44:46;;;;;;;1999.90;999.90;;;;;;;17.93;43.09;102554.50;5048584;28;20025;-66
2023/05/24 02:47:12;;;;;;;1999.90;999.90;;;;;;;18.27;42.66;102564.59;5067152;28;20032;-66
2023/05/24 02:49:38;;;;;;;1999.90;999.90;;;;;;;18.11;43.32;102558.66;5050473;28;20056;-66
2023/05/24 02:52:04;;;;;;;1999.90;999.90;;;;;;;18.10;42.73;102564.81;5046908;28;20083;-66
2023/05/24 02:54:29;;;;;;;1999.90;999.90;;;;;;;17.97;42.98;102563.28;5064384;28;20515;-66
2023/05/24 02:56:55;;;;;;;1999.90;999.90;;;;;;;17.83;43.55;102567.81;5068846;28;20024;-66
2023/05/24 02:59:21;;;;;;;1999.90;999.90;;;;;;;18.09;42.57;102568.38;5060384;28;20049;-66
2023/05/24 03:01:46;;;;;;;1999.90;999.90;;;;;;;17.94;43.47;102566.81;5067713;28;20405;-66
2023/05/24 03:04:12;;;;;;;1999.90;999.90;;;;;;;17.98;43.71;102570.28;5056573;28;20415;-66
2023/05/24 03:06:37;;;;;;;1999.90;999.90;;;;;;;18.08;43.09;102568.38;5056500;28;20032;-66
2023/05/24 03:09:02;;;;;;;1999.90;999.90;;;;;;;18.06;43.33;102571.06;5070799;28;20453;-66
2023/05/24 03:11:28;;;;;;;1999.90;999.90;;;;;;;18.22;42.96;102570.88;5070366;28;20035;-66
2023/05/24 03:13:53;;;;;;;1999.90;999.90;;;;;;;18.25;42.53;102576.09;5064631;28;20036;-66
2023/05/24 03:16:19;;;;;;;1999.90;999.90;;;;;;;18.43;41.92;102570.50;5056252;28;20054;-66
2023/05/24 03:18:45;;;;;;;1999.90;999.90;;;;;;;18.21;42.20;102564.69;5050719;28;20048;-66
2023/05/24 03:21:10;;;;;;;1999.90;999.90;;;;;;;18.02;42.99;102560.56;5048687;28;20060;-66
2023/05/24 03:23:36;;;;;;;1999.90;999.90;;;;;;;18.52;42.15;102568.63;5062117;28;20496;-66
2023/05/24 03:26:01;;;;;;;1999.90;999.90;;;;;;;17.99;43.46;102556.16;5070510;28;20124;-66
2023/05/24 03:28:27;;;;;;;1999.90;999.90;;;;;;;18.13;43.35;102550.69;5051621;28;20048;-66
2023/05/24 03:30:53;;;;;;;1999.90;999.90;;;;;;;18.01;43.56;102551.75;5051062;28;20548;-66
2023/05/24 03:33:18;;;;;;;1999.90;999.90;;;;;;;18.00;43.16;102555.28;5055840;28;20119;-66
2023/05/24 03:35:43;;;;;;;1999.90;999.90;;;;;;;18.38;42.51;102548.56;5062273;28;20040;-66
2023/05/24 03:38:09;;;;;;;1999.90;999.90;;;;;;;18.33;42.65;102539.81;5061581;28;20067;-66
2023/05/24 03:40:35;;;;;;;1999.90;999.90;;;;;;;18.19;42.92;102550.59;5071806;28;20032;-66
2023/05/24 03:43:01;;;;;;;1999.90;999.90;;;;;;;18.14;43.14;102550.66;5068648;28;20032;-66
2023/05/24 03:45:26;;;;;;;1999.90;999.90;;;;;;;17.90;43.62;102540.38;5068731;28;20020;-66
2023/05/24 03:47:51;;;;;;;1999.90;999.90;;;;;;;18.37;42.25;102548.56;5072050;28;20082;-66
2023/05/24 03:50:17;;;;;;;1999.90;999.90;;;;;;;18.19;43.25;102540.03;5067651;28;20020;-66
2023/05/24 03:52:42;;;;;;;1999.90;999.90;;;;;;;17.85;43.65;102536.94;5065835;28;20377;-66
2023/05/24 03:55:08;;;;;;;1999.90;999.90;;;;;;;18.10;43.31;102535.72;5066795;28;20078;-66
2023/05/24 03:57:33;;;;;;;1999.90;999.90;;;;;;;17.85;44.10;102536.94;5070075;28;20578;-66
2023/05/24 03:59:59;;;;;;;1999.90;999.90;;;;;;;17.37;45.84;102540.19;5070262;28;20024;-66
2023/05/24 04:02:25;;;;;;;1999.90;999.90;;;;;;;17.87;45.20;102553.66;5049858;28;20072;-66
2023/05/24 04:04:50;;;;;;;1999.90;999.90;;;;;;;18.20;43.76;102546.16;5066613;28;20059;-66
2023/05/24 04:07:16;;;;;;;1999.90;999.90;;;;;;;18.28;43.29;102561.03;5068143;28;20025;-66
2023/05/24 04:09:42;;;;;;;1999.90;999.90;;;;;;;18.35;43.90;102561.81;5068924;28;20395;-66
2023/05/24 04:12:07;;;;;;;1999.90;999.90;;;;;;;18.19;43.72;102562.94;5068437;28;20027;-66
2023/05/24 04:14:34;;;;;;;1999.90;999.90;;;;;;;18.33;43.71;102568.91;5068805;28;20028;-66
2023/05/24 04:17:01;;;;;;;1999.90;999.90;;;;;;;18.64;42.82;102561.38;5068797;28;20036;-66
2023/05/24 04:19:26;;;;;;;1999.90;999.90;;;;;;;18.63;43.01;102561.41;5067671;28;20020;-66
2023/05/24 04:21:51;;;;;;;1999.90;999.90;;;;;;;17.58;45.49;102573.41;5055260;28;20025;-66
2023/05/24 04:24:17;;;;;;;1999.90;999.90;;;;;;;17.77;45.77;102569.63;5053682;28;20036;-66
2023/05/24 04:26:43;;;;;;;1999.90;999.90;;;;;;;18.45;44.29;102568.72;5069403;28;20532;-66
2023/05/24 04:29:09;;;;;;;1999.90;999.90;;;;;;;18.45;43.96;102570.50;5068770;28;20040;-66
2023/05/24 04:31:34;;;;;;;1999.90;999.90;;;;;;;17.96;45.40;102564.16;5068224;28;20126;-66
2023/05/24 04:34:00;;;;;;;1999.90;999.90;;;;;;;17.94;45.16;102560.63;5066870;28;20101;-66
2023/05/24 04:36:27;;;;;;;1999.90;999.90;;;;;;;18.46;44.37;102559.91;5063764;28;20358;-66
2023/05/24 04:38:54;;;;;;;1999.90;999.90;;;;;;;18.26;44.99;102567.28;5048593;28;20505;-66
2023/05/24 04:41:21;;;;;;;1999.90;999.90;;;;;;;18.79;45.41;102560.25;5048803;28;20025;-66
2023/05/24 04:43:46;;;;;;;1999.90;999.90;;;;;;;19.66;43.44;102556.00;5053197;28;20040;-66
2023/05/24 04:46:12;;;;;;;1999.90;999.90;;;;;;;19.56;42.95;102559.72;5067687;28;20043;-66
2023/05/24 04:48:37;;;;;;;1999.90;999.90;;;;;;;20.22;40.93;102557.44;5063490;28;20032;-66
2023/05/24 04:51:03;;;;;;;1999.90;999.90;;;;;;;20.44;40.23;102556.03;5054490;28;20048;-66
2023/05/24 04:53:29;;;;;;;1999.90;999.90;;;;;;;20.21;41.04;102558.34;5068454;28;20390;-66
2023/05/24 04:55:54;;;;;;;1999.90;999.90;;;;;;;20.21;41.05;102547.72;5068710;28;20028;-66
2023/05/24 04:58:20;;;;;;;1999.90;999.90;;;;;;;19.90;41.78;102551.09;5069618;28;20056;-66
2023/05/24 05:00:45;;;;;;;1999.90;999.90;;;;;;;20.08;41.46;102553.31;5062051;28;20029;-66
2023/05/24 05:03:11;;;;;;;1999.90;999.90;;;;;;;19.22;43.48;102555.06;5049789;28;20108;-66
2023/05/24 05:05:36;;;;;;;1999.90;999.90;;;;;;;19.42;43.71;102552.03;5049107;28;20495;-66
2023/05/24 05:08:02;;;;;;;1999.90;999.90;;;;;;;19.79;43.55;102546.84;5053246;28;20029;-66
2023/05/24 05:10:28;;;;;;;1999.90;999.90;;;;;;;19.81;43.10;102550.38;5068028;28;20085;-66
2023/05/24 05:12:53;;;;;;;1999.90;999.90;;;;;;;19.50;43.03;102540.38;5067865;28;20473;-66
2023/05/24 05:15:21;;;;;;;1999.90;999.90;;;;;;;18.58;45.52;102552.66;5068317;28;20040;-66
2023/05/24 05:17:46;;;;;;;1999.90;999.90;;;;;;;19.01;44.45;102546.63;5065633;28;20035;-66
2023/05/24 05:20:11;;;;;;;1999.90;999.90;;;;;;;19.78;43.28;102545.13;5065340;28;20013;-66
2023/05/24 05:22:37;;;;;;;1999.90;999.90;;;;;;;19.47;43.42;102547.53;5063266;28;20408;-66
2023/05/24 05:25:02;;;;;;;1999.90;999.90;;;;;;;19.54;43.41;102550.94;5068601;28;20061;-66
2023/05/24 05:27:28;;;;;;;1999.90;999.90;;;;;;;19.98;43.18;102551.78;5066775;28;20385;-66
2023/05/24 05:29:54;;;;;;;1999.90;999.90;;;;;;;20.16;42.45;102559.31;5062917;28;20035;-66
2023/05/24 05:32:19;;;;;;;1999.90;999.90;;;;;;;20.35;42.01;102558.91;5067797;28;20037;-66
2023/05/24 05:34:45;;;;;;;1999.90;999.90;;;;;;;20.28;42.38;102559.97;5068446;28;20020;-71
2023/05/24 05:37:10;;;;;;;1999.90;999.90;;;;;;;20.10;42.22;102567.44;5064439;28;20036;-71
2023/05/24 05:39:36;;;;;;;1999.90;999.90;;;;;;;21.20;41.14;102559.44;5065403;28;20429;-71
2023/05/24 05:42:02;;;;;;;1999.90;999.90;;;;;;;21.48;40.87;102559.50;5068841;28;20028;-71
2023/05/24 05:44:27;;;;;;;1999.90;999.90;;;;;;;20.82;41.54;102556.00;5064914;28;20041;-71
2023/05/24 05:46:53;;;;;;;1999.90;999.90;;;;;;;20.81;42.32;102554.25;5069045;28;20480;-71
2023/05/24 05:49:18;;;;;;;1999.90;999.90;;;;;;;21.14;41.00;102556.91;5065042;28;20131;-71
2023/05/24 05:51:45;;;;;;;1999.90;999.90;;;;;;;20.81;42.25;102563.13;5067856;28;20102;-71
2023/05/24 05:54:17;;;;;;;1999.90;999.90;;;;;;;21.58;41.94;102561.94;5068533;28;20052;-71
2023/05/24 05:56:45;;;;;;;1999.90;999.90;;;;;;;20.56;42.81;102572.56;5067473;28;20024;-71
2023/05/24 05:59:11;;;;;;;1999.90;999.90;;;;;;;20.69;43.16;102571.41;5067776;28;20044;-71
2023/05/24 06:01:37;;;;;;;1999.90;999.90;;;;;;;21.57;41.56;102576.16;5070043;28;20024;-71
2023/05/24 06:04:06;;;;;;;1999.90;999.90;;;;;;;21.01;42.49;102580.31;5065425;28;20021;-71
2023/05/24 06:06:32;;;;;;;1999.90;999.90;;;;;;;22.62;40.96;102579.13;5060450;28;20024;-71
2023/05/24 06:08:59;;;;;;;1999.90;999.90;;;;;;;21.98;40.99;102572.28;5048499;28;20103;-70
2023/05/24 06:11:25;;;;;;;1999.90;999.90;;;;;;;22.97;40.21;102579.75;5048154;28;20120;-70
2023/05/24 06:13:51;;;;;;;1999.90;999.90;;;;;;;21.08;41.26;102579.22;5050346;28;20025;-70
2023/05/24 06:16:17;;;;;;;1999.90;999.90;;;;;;;21.77;41.01;102584.41;5053165;28;20496;-71
2023/05/24 06:18:42;;;;;;;1999.90;999.90;;;;;;;21.30;41.76;102583.97;5054132;28;20037;-70
2023/05/24 06:21:09;;;;;;;1999.90;999.90;;;;;;;22.11;39.77;102586.06;5050632;28;20067;-70
2023/05/24 06:23:36;;;;;;;1999.90;999.90;;;;;;;21.59;40.91;102580.50;5059877;28;20025;-70
2023/05/24 06:26:02;;;;;;;1999.90;999.90;;;;;;;22.68;39.56;102583.38;5065081;28;20451;-71
2023/05/24 06:28:27;;;;;;;1999.90;999.90;;;;;;;22.11;39.86;102580.75;5064608;28;20036;-70
2023/05/24 06:30:53;;;;;;;1999.90;999.90;;;;;;;23.06;38.24;102591.88;5062807;28;20035;-71
2023/05/24 06:33:18;;;;;;;1999.90;999.90;;;;;;;22.95;37.45;102591.38;5069423;28;20032;-70
2023/05/24 06:35:44;;;;;;;1999.90;999.90;;;;;;;22.85;38.60;102586.34;5067349;28;20448;-70
2023/05/24 06:38:09;;;;;;;1999.90;999.90;;;;;;;22.13;39.32;102586.00;5072367;28;20059;-65
2023/05/24 06:40:34;;;;;;;1999.90;999.90;;;;;;;22.14;39.10;102583.31;5068304;28;20431;-65
2023/05/24 06:43:00;;;;;;;1999.90;999.90;;;;;;;21.27;40.41;102589.38;5070272;28;20024;-66
2023/05/24 06:45:25;;;;;;;1999.90;999.90;;;;;;;22.18;39.25;102590.28;5061204;28;20112;-65
2023/05/24 06:47:50;;;;;;;1999.90;999.90;;;;;;;21.92;39.32;102582.22;5059432;28;20020;-66
2023/05/24 06:50:17;;;;;;;1999.90;999.90;;;;;;;23.29;37.30;102584.91;5057832;28;20021;-66
2023/05/24 06:52:42;;;;;;;1999.90;999.90;;;;;;;22.47;38.62;102588.50;5060811;28;20112;-66
2023/05/24 06:55:08;;;;;;;1999.90;999.90;;;;;;;21.77;38.92;102588.88;5069892;28;20416;-66
2023/05/24 06:57:33;;;;;;;1999.90;999.90;;;;;;;22.92;37.43;102586.16;5055966;28;20462;-66
2023/05/24 06:59:59;;;;;;;1999.90;999.90;;;;;;;23.32;36.69;102590.13;5050285;28;20099;-66
2023/05/24 07:02:26;;;;;;;1999.90;999.90;;;;;;;22.57;38.41;102582.88;5053512;28;20476;-66
2023/05/24 07:04:52;;;;;;;1999.90;999.90;;;;;;;23.45;35.91;102575.41;5067126;28;20459;-66
2023/05/24 07:07:19;;;;;;;1999.90;999.90;;;;;;;20.65;40.45;102585.63;5056334;28;20037;-66
2023/05/24 07:09:46;;;;;;;1999.90;999.90;;;;;;;23.10;37.07;102574.84;5065718;28;20037;-66
2023/05/24 07:12:11;;;;;;;1999.90;999.90;;;;;;;23.19;36.24;102579.88;5069741;28;20020;-66
2023/05/24 07:14:37;;;;;;;1999.90;999.90;;;;;;;22.55;37.19;102587.41;5070833;28;20034;-66
2023/05/24 07:17:03;;;;;;;1999.90;999.90;;;;;;;21.17;38.39;102584.31;5061994;28;20033;-66
2023/05/24 07:19:28;;;;;;;1999.90;999.90;;;;;;;21.67;37.36;102577.63;5077613;28;20028;-66
2023/05/24 07:21:57;;;;;;;1999.90;999.90;;;;;;;24.77;34.29;102580.94;5051904;28;20035;-66
2023/05/24 07:24:27;;;;;;;1999.90;999.90;;;;;;;24.20;34.13;102579.66;5072427;28;20079;-65
2023/05/24 07:26:52;;;;;;;1999.90;999.90;;;;;;;24.24;33.43;102585.75;5076716;28;20020;-66
2023/05/24 07:29:18;;;;;;;1999.90;999.90;;;;;;;23.87;34.46;102587.16;5069888;28;20033;-66
2023/05/24 07:31:44;;;;;;;1999.90;999.90;;;;;;;22.74;35.66;102588.53;5072015;28;20032;-66
2023/05/24 07:34:09;;;;;;;1999.90;999.90;;;;;;;24.05;33.70;102590.97;5066329;28;20082;-66
2023/05/24 07:36:35;;;;;;;1999.90;999.90;;;;;;;24.15;34.16;102591.47;5050360;28;20144;-65
2023/05/24 07:39:02;;;;;;;1999.90;999.90;;;;;;;23.14;34.52;102595.16;5069435;28;20028;-66
2023/05/24 07:41:28;;;;;;;1999.90;999.90;;;;;;;24.52;33.61;102585.50;5056250;28;20376;-66
2023/05/24 07:43:54;;;;;;;1999.90;999.90;;;;;;;24.29;33.83;102588.22;5064181;28;20032;-66
2023/05/24 07:46:20;;;;;;;1999.90;999.90;;;;;;;25.04;32.81;102592.25;5068519;28;20467;-66
2023/05/24 07:48:46;;;;;;;1999.90;999.90;;;;;;;26.41;32.29;102593.13;5069295;28;20052;-66
2023/05/24 07:51:11;;;;;;;1999.90;999.90;;;;;;;27.34;29.48;102588.38;5069709;28;20400;-66
2023/05/24 07:53:37;;;;;;;1999.90;999.90;;;;;;;27.03;30.13;102590.88;5069862;28;20519;-66
2023/05/24 07:56:02;;;;;;;1999.90;999.90;;;;;;;28.25;28.69;102586.97;5067995;28;20404;-66
2023/05/24 07:58:28;;;;;;;1999.90;999.90;;;;;;;26.88;29.76;102592.56;5070848;28;20044;-66
2023/05/24 08:00:54;;;;;;;1999.90;999.90;;;;;;;28.47;28.34;102577.66;5069772;28;20772;-66
2023/05/24 08:03:19;;;;;;;1999.90;999.90;;;;;;;29.00;27.47;102588.00;5068348;28;20520;-66
2023/05/24 08:05:45;;;;;;;1999.90;999.90;;;;;;;28.82;27.43;102580.09;5051846;28;20024;-66
2023/05/24 08:08:10;;;;;;;1999.90;999.90;;;;;;;26.61;29.99;102594.78;5070899;28;20028;-67
2023/05/24 08:10:35;;;;;;;1999.90;999.90;;;;;;;25.76;31.43;102585.50;5069024;28;20034;-66
2023/05/24 08:13:02;;;;;;;1999.90;999.90;;;;;;;25.55;31.64;102588.22;5071219;28;20029;-66
2023/05/24 08:15:27;;;;;;;1999.90;999.90;;;;;;;26.80;30.26;102588.53;5068822;28;20024;-66
2023/05/24 08:17:53;;;;;;;1999.90;999.90;;;;;;;28.18;29.17;102582.03;5052159;28;20510;-66
2023/05/24 08:20:18;;;;;;;1999.90;999.90;;;;;;;27.17;29.07;102592.84;5066721;28;20024;-66
2023/05/24 08:22:44;;;;;;;1999.90;999.90;;;;;;;26.33;29.65;102584.59;5068829;28;20032;-66
2023/05/24 08:25:12;;;;;;;1999.90;999.90;;;;;;;27.67;28.04;102579.47;5068675;28;20137;-66
2023/05/24 08:27:38;;;;;;;1999.90;999.90;;;;;;;30.00;27.71;102573.66;5052805;28;20558;-66
2023/05/24 08:30:04;;;;;;;1999.90;999.90;;;;;;;28.35;26.93;102575.69;5065282;28;20029;-65
2023/05/24 08:32:31;;;;;;;1999.90;999.90;;;;;;;29.30;26.07;102576.34;5049416;28;20032;-66
2023/05/24 08:34:56;;;;;;;1999.90;999.90;;;;;;;26.46;29.34;102583.06;5068579;28;20025;-66
2023/05/24 08:37:22;;;;;;;1999.90;999.90;;;;;;;26.95;28.27;102574.31;5066781;28;20374;-66
2023/05/24 08:39:47;;;;;;;1999.90;999.90;;;;;;;27.74;29.76;102575.53;5068327;28;20027;-66
2023/05/24 08:42:14;;;;;;;1999.90;999.90;;;;;;;26.47;29.58;102582.09;5068651;28;20024;-66
2023/05/24 08:44:57;;;;;;;1999.90;999.90;;;;;;;29.52;27.39;102578.53;5068459;28;20025;-66
2023/05/24 08:47:22;;;;;;;;;;;;;;;30.98;24.67;102577.94;5066883;28;20047;-66
2023/05/24 08:49:50;;;;;;;1999.90;999.90;;;;;;;30.79;23.92;102577.38;5063944;28;20373;-66
2023/05/24 08:52:16;;;;;;;1999.90;999.90;;;;;;;28.99;25.13;102581.78;5047872;28;20017;-66
2023/05/24 08:54:42;;;;;;;1999.90;999.90;;;;;;;30.35;23.81;102573.16;5049157;28;20032;-66
2023/05/24 08:57:10;;;;;;;1999.90;999.90;;;;;;;29.90;25.83;102573.41;5058184;28;20416;-66
2023/05/24 08:59:37;;;;;;;1999.90;999.90;;;;;;;29.59;24.92;102575.38;5066505;28;20035;-66
2023/05/24 09:02:04;;;;;;;1999.90;999.90;;;;;;;29.81;25.58;102587.44;5068793;28;20031;-66
2023/05/24 09:04:30;;;;;;;1999.90;999.90;;;;;;;28.69;27.29;102574.59;5070201;28;20071;-66
2023/05/24 09:06:57;;;;;;;1999.90;999.90;;;;;;;28.90;26.55;102572.41;5065618;28;20032;-66
2023/05/24 09:09:26;;;;;;;1999.90;999.90;;;;;;;29.11;26.41;102572.06;5066580;28;20506;-66
2023/05/24 09:11:55;;;;;;;1999.90;999.90;;;;;;;30.96;24.01;102578.91;5067838;28;20039;-66
2023/05/24 09:14:21;;;;;;;1999.90;999.90;;;;;;;27.74;26.22;102580.91;5068077;28;20028;-66
2023/05/24 09:16:46;;;;;;;1999.90;999.90;;;;;;;30.39;24.42;102573.81;5062217;28;20389;-66
2023/05/24 09:19:12;;;;;;;1999.90;999.90;;;;;;;29.91;23.43;102575.16;5056585;28;20480;-66
2023/05/24 09:21:39;;;;;;;1999.90;999.90;;;;;;;29.58;25.88;102573.63;5067032;28;20032;-66
2023/05/24 09:24:09;;;;;;;1999.90;999.90;;;;;;;32.03;22.89;102575.88;5067268;28;20070;-67
2023/05/24 09:26:37;;;;;;;1999.90;999.90;;;;;;;28.44;24.35;102585.91;5062455;28;20198;-66
2023/05/24 09:29:07;;;;;;;1999.90;999.90;;;;;;;29.19;24.44;102583.22;5049910;28;20027;-66
2023/05/24 09:31:33;;;;;;;1999.90;999.90;;;;;;;29.31;25.35;102580.78;5048488;28;20037;-66
2023/05/24 09:33:59;;;;;;;1999.90;999.90;;;;;;;29.31;25.32;102583.47;5047607;28;20059;-66
2023/05/24 09:36:28;;;;;;;1999.90;999.90;;;;;;;30.69;23.52;102570.03;5064018;28;20024;-66
2023/05/24 09:39:08;;;;;;;1999.90;999.90;;;;;;;32.23;22.25;102558.16;5048445;28;20079;-66
2023/05/24 09:41:34;;;;;;;1999.90;999.90;;;;;;;30.77;23.94;102562.25;5047716;28;20045;-66
2023/05/24 09:44:02;;;;;;;1999.90;999.90;;;;;;;29.14;24.40;102569.19;5048141;28;20554;-66
2023/05/24 09:46:28;;;;;;;1999.90;999.90;;;;;;;29.09;25.11;102556.00;5050100;28;20074;-66
2023/05/24 09:49:02;;;;;;;1999.90;999.90;;;;;;;27.74;26.62;102559.41;5067618;28;20389;-66
2023/05/24 09:51:28;;;;;;;1999.90;999.90;;;;;;;28.80;24.93;102554.22;5069052;28;20032;-66
2023/05/24 09:54:00;;;;;;;1999.90;999.90;;;;;;;27.54;25.52;102552.44;5067565;28;20074;-66
2023/05/24 09:56:26;;;;;;;1999.90;999.90;;;;;;;28.97;24.70;102550.53;5054976;28;20037;-66
2023/05/24 09:58:53;;;;;;;1999.90;999.90;;;;;;;28.76;24.60;102542.81;5047118;28;20059;-66
2023/05/24 10:01:21;;;;;;;1999.90;999.90;;;;;;;30.95;22.98;102549.31;5058203;28;20064;-66
2023/05/24 10:03:57;;;;;;;1999.90;999.90;;;;;;;29.17;24.67;102552.84;5047992;28;20048;-66
2023/05/24 10:06:24;;;;;;;1999.90;999.90;;;;;;;30.54;23.15;102551.25;5047091;28;20518;-65
2023/05/24 10:08:51;;;;;;;1999.90;999.90;;;;;;;27.86;25.31;102553.34;5051637;28;20143;-66
2023/05/24 10:11:17;;;;;;;1999.90;999.90;;;;;;;29.82;24.29;102543.38;5051562;28;20481;-66
2023/05/24 10:13:43;;;;;;;1999.90;999.90;;;;;;;32.50;22.01;102543.53;5052111;28;20025;-66
2023/05/24 10:16:09;;;;;;;1999.90;999.90;;;;;;;30.78;22.37;102542.41;5050622;28;20612;-66
2023/05/24 10:18:34;;;;;;;1999.90;999.90;;;;;;;30.40;24.11;102545.88;5052980;28;20044;-66
2023/05/24 10:21:01;;;;;;;1999.90;999.90;;;;;;;32.01;21.92;102537.25;5071755;28;20028;-66
2023/05/24 10:23:31;;;;;;;1999.90;999.90;;;;;;;32.37;21.69;102540.88;5072050;28;20452;-66
2023/05/24 10:26:08;;;;;;;13.82;13.02;;;;;;;32.48;21.10;102535.53;5071308;28;20028;-66
2023/05/24 10:28:41;;;;;;;14.65;13.65;;;;;;;31.02;22.12;102544.34;5066513;28;20395;-66
2023/05/24 10:31:11;;;;;;;14.07;13.27;;;;;;;32.29;20.26;102542.34;5070369;28;20024;-67
2023/05/24 10:33:39;;;;;;;1999.90;999.90;;;;;;;31.78;22.54;102543.41;5072994;28;20094;-67
2023/05/24 10:36:11;;;;;;;1999.90;999.90;;;;;;;30.32;23.80;102546.38;5070410;28;20051;-66
2023/05/24 10:38:38;;;;;;;1999.90;999.90;;;;;;;29.83;24.28;102545.09;5071801;28;20036;-67
2023/05/24 10:41:07;;;;;;;1999.90;999.90;;;;;;;29.00;23.31;102550.34;5072404;28;20043;-66
2023/05/24 10:43:36;;;;;;;1999.90;999.90;;;;;;;27.95;25.33;102545.72;5069335;28;20147;-67
2023/05/24 10:46:03;;;;;;;1999.90;999.90;;;;;;;29.91;23.61;102537.41;5051833;28;20025;-66
2023/05/24 10:48:29;;;;;;;1999.90;999.90;;;;;;;31.80;22.67;102536.03;5064808;28;20035;-66